Pagina principale
METAR-TAF:

METAR-TAF

Aeroporti :

Sion, Svizzera

latitudine: 46-13N, longitudine: 007-20E, altezza: 482 m

Osservazione

Il bollettino è stato emesso 17 minuti fa, alle 20:20 UTC
Vento 10 kt da ovest
Temperature 14°C
Umidità 94%
Pressione 1014 hPa
Visibilità 10 km o più
Cielo coperto ad un'altezza di 7000 ft
pioggia debole

METAR: LSGS 252020Z AUTO 26010KT 9999 -RA OVC070 14/13 Q1014

Ora: 22:37 (20:37 UTC)

Previsione

Il bollettino è stato emesso 6 ore e 12 minuti fa, alle 14:25 UTC
Previsione valida dal 25 alle 15 UTC al 25 alle 24 UTC
Vento 15 kt da ovest/sud-ovest
Visibilità 10 km o più
Nubi sparse ad un'altezza di 3000 ft
Nuvoloso ad un'altezza di 8000 ft
Probabilità 40% :
Temporaneamente
dal 25 alle 15 UTC al 25 alle 24 UTC
rovesci di pioggia
Evoluzione graduale
dal 25 alle 19 UTC al 25 alle 21 UTC
Vento 3 kt da direzioni variabili

TAF: LSGS 251425Z 2515/2524 25015KT 9999 SCT030 BKN080 PROB40 TEMPO 2515/2524 SHRA BECMG 2519/2521 VRB03KT

Osservazioni e previsioni meteorologiche di più di 4000 aeroporti (messaggi METAR e TAF).

Le stazioni disponibili sono rappresentate dai dischi gialli e rossi sulla carta.

Puntare il mouse per vedere il nome della stazione.

Clicca sopra per visualizzare le osservazioni e previsioni meteorologiche.

Per cambiare la mappa : fare clic sui pulsanti verdi con una croce nera per ingrandire, il pulsante verde con un trattino per diminuire, o sulla freccia verde per le mappe adiacenti.


METAR-TAF: